Terminal Aerodrome Forecast
Issued by NWS

Home | Current Version | Previous Version | Text Only | Print | Product List | Glossary Off
Versions: 1 2 3 4 5 6 7 8 9 10 11 12 13 14 15 16 17 18 19 20 21 22 23 24 25 26 27 28 29

000
FTUS41 KCTP 250540
TAFBFD
TAF
KBFD 250540Z 2506/2606 26002KT P6SM BKN040
     FM251400 25010G20KT P6SM BKN050
     FM252200 26008KT P6SM -SHRA BKN025
     FM260000 28010KT P6SM SCT045=

USA.gov is the U.S. government's official web portal to all federal, state and local government web resources and services.